sensor_id;sensor_type;location;lat;lon;timestamp;pressure;altitude;pressure_sealevel;temperature;humidity
79067;BME280;68470;50.224;14.348;2023-03-16T00:02:14;99959.34;;;-3.99;94.75
79067;BME280;68470;50.224;14.348;2023-03-16T00:04:40;99945.97;;;-4.16;94.23
79067;BME280;68470;50.224;14.348;2023-03-16T00:07:10;99962.81;;;-4.06;94.88
79067;BME280;68470;50.224;14.348;2023-03-16T00:09:39;99960.09;;;-4.14;94.22
79067;BME280;68470;50.224;14.348;2023-03-16T00:12:14;99966.91;;;-4.20;94.28
79067;BME280;68470;50.224;14.348;2023-03-16T00:14:47;99968.38;;;-4.26;95.44
79067;BME280;68470;50.224;14.348;2023-03-16T00:17:16;99956.34;;;-4.39;95.37
79067;BME280;68470;50.224;14.348;2023-03-16T00:19:50;99962.28;;;-4.36;95.29
79067;BME280;68470;50.224;14.348;2023-03-16T00:22:21;99963.84;;;-4.25;95.47
79067;BME280;68470;50.224;14.348;2023-03-16T00:24:47;99958.47;;;-4.25;95.40
79067;BME280;68470;50.224;14.348;2023-03-16T00:27:14;99952.31;;;-3.91;95.73
79067;BME280;68470;50.224;14.348;2023-03-16T00:29:41;99949.09;;;-3.69;95.82
79067;BME280;68470;50.224;14.348;2023-03-16T00:32:23;99959.91;;;-3.61;95.40
79067;BME280;68470;50.224;14.348;2023-03-16T00:34:49;99962.34;;;-3.42;95.19
79067;BME280;68470;50.224;14.348;2023-03-16T00:37:18;99953.25;;;-3.41;94.80
79067;BME280;68470;50.224;14.348;2023-03-16T00:39:45;99954.50;;;-3.61;95.08
79067;BME280;68470;50.224;14.348;2023-03-16T00:42:13;99964.69;;;-3.73;94.28
79067;BME280;68470;50.224;14.348;2023-03-16T00:44:39;99967.28;;;-3.89;94.59
79067;BME280;68470;50.224;14.348;2023-03-16T00:47:09;99958.50;;;-3.99;95.00
79067;BME280;68470;50.224;14.348;2023-03-16T00:49:39;99961.75;;;-3.87;94.93
79067;BME280;68470;50.224;14.348;2023-03-16T00:52:08;99963.53;;;-3.70;93.86
79067;BME280;68470;50.224;14.348;2023-03-16T00:54:34;99957.63;;;-3.40;92.56
79067;BME280;68470;50.224;14.348;2023-03-16T00:57:01;99949.44;;;-3.30;91.61
79067;BME280;68470;50.224;14.348;2023-03-16T00:59:27;99962.16;;;-2.90;89.86
79067;BME280;68470;50.224;14.348;2023-03-16T01:01:54;99955.97;;;-2.82;89.99
79067;BME280;68470;50.224;14.348;2023-03-16T01:04:20;99964.06;;;-2.74;89.25
79067;BME280;68470;50.224;14.348;2023-03-16T01:06:48;99948.38;;;-2.79;89.21
79067;BME280;68470;50.224;14.348;2023-03-16T01:09:14;99955.50;;;-2.61;88.42
79067;BME280;68470;50.224;14.348;2023-03-16T01:11:40;99957.19;;;-2.68;88.10
79067;BME280;68470;50.224;14.348;2023-03-16T01:14:10;99966.94;;;-2.67;88.33
79067;BME280;68470;50.224;14.348;2023-03-16T01:16:36;99956.16;;;-2.67;88.54
79067;BME280;68470;50.224;14.348;2023-03-16T01:19:02;99961.34;;;-2.74;88.47
79067;BME280;68470;50.224;14.348;2023-03-16T01:21:28;99961.53;;;-2.76;88.17
79067;BME280;68470;50.224;14.348;2023-03-16T01:23:54;99962.03;;;-2.72;88.31
79067;BME280;68470;50.224;14.348;2023-03-16T01:26:20;99966.94;;;-2.67;88.06
79067;BME280;68470;50.224;14.348;2023-03-16T01:28:47;99971.66;;;-2.53;87.49
79067;BME280;68470;50.224;14.348;2023-03-16T01:31:14;99972.84;;;-2.48;87.20
79067;BME280;68470;50.224;14.348;2023-03-16T01:33:41;99972.88;;;-2.31;86.28
79067;BME280;68470;50.224;14.348;2023-03-16T01:36:17;99977.91;;;-2.45;86.70
79067;BME280;68470;50.224;14.348;2023-03-16T01:38:43;99971.63;;;-2.69;87.58
79067;BME280;68470;50.224;14.348;2023-03-16T01:41:10;99979.09;;;-2.47;87.13
79067;BME280;68470;50.224;14.348;2023-03-16T01:43:38;99979.91;;;-2.63;87.47
79067;BME280;68470;50.224;14.348;2023-03-16T01:57:14;99988.25;;;-2.90;88.79
79067;BME280;68470;50.224;14.348;2023-03-16T01:59:47;99976.94;;;-3.10;89.07
79067;BME280;68470;50.224;14.348;2023-03-16T02:02:19;99981.66;;;-3.04;89.40
79067;BME280;68470;50.224;14.348;2023-03-16T02:07:15;99990.94;;;-3.41;90.52
79067;BME280;68470;50.224;14.348;2023-03-16T02:09:45;99992.00;;;-3.34;91.35
79067;BME280;68470;50.224;14.348;2023-03-16T02:12:15;99990.75;;;-3.47;90.83
79067;BME280;68470;50.224;14.348;2023-03-16T02:14:46;99983.16;;;-3.52;91.46
79067;BME280;68470;50.224;14.348;2023-03-16T02:17:14;99981.41;;;-3.61;91.39
79067;BME280;68470;50.224;14.348;2023-03-16T02:22:52;99998.66;;;-3.46;91.75
79067;BME280;68470;50.224;14.348;2023-03-16T02:25:28;99995.19;;;-3.64;91.93
79067;BME280;68470;50.224;14.348;2023-03-16T02:28:04;100003.16;;;-3.80;92.61
79067;BME280;68470;50.224;14.348;2023-03-16T02:30:36;99997.38;;;-3.94;93.06
79067;BME280;68470;50.224;14.348;2023-03-16T02:33:02;100008.59;;;-3.98;92.63
79067;BME280;68470;50.224;14.348;2023-03-16T02:35:30;100006.38;;;-4.03;93.55
79067;BME280;68470;50.224;14.348;2023-03-16T02:37:56;100012.06;;;-4.06;93.57
79067;BME280;68470;50.224;14.348;2023-03-16T02:40:23;100012.06;;;-4.06;93.01
79067;BME280;68470;50.224;14.348;2023-03-16T02:43:03;100022.78;;;-4.32;92.57
79067;BME280;68470;50.224;14.348;2023-03-16T02:45:32;100019.78;;;-4.46;93.15
79067;BME280;68470;50.224;14.348;2023-03-16T02:48:01;100031.69;;;-4.67;93.38
79067;BME280;68470;50.224;14.348;2023-03-16T02:50:30;100030.06;;;-4.77;93.72
79067;BME280;68470;50.224;14.348;2023-03-16T02:52:56;100033.28;;;-4.74;94.42
79067;BME280;68470;50.224;14.348;2023-03-16T02:55:21;100035.22;;;-4.66;94.59
79067;BME280;68470;50.224;14.348;2023-03-16T02:57:47;100029.44;;;-4.71;94.89
79067;BME280;68470;50.224;14.348;2023-03-16T03:00:13;100030.28;;;-4.71;94.69
79067;BME280;68470;50.224;14.348;2023-03-16T03:02:44;100028.00;;;-4.66;94.63
79067;BME280;68470;50.224;14.348;2023-03-16T03:05:10;100025.13;;;-4.82;94.21
79067;BME280;68470;50.224;14.348;2023-03-16T03:07:37;100032.66;;;-4.86;94.40
79067;BME280;68470;50.224;14.348;2023-03-16T03:10:04;100038.22;;;-4.97;94.71
79067;BME280;68470;50.224;14.348;2023-03-16T03:12:32;100029.94;;;-5.03;94.38
79067;BME280;68470;50.224;14.348;2023-03-16T03:14:58;100039.06;;;-4.96;95.25
79067;BME280;68470;50.224;14.348;2023-03-16T03:17:24;100040.47;;;-4.92;95.27
79067;BME280;68470;50.224;14.348;2023-03-16T03:19:59;100044.63;;;-4.80;95.60
79067;BME280;68470;50.224;14.348;2023-03-16T03:22:27;100038.72;;;-4.83;94.81
79067;BME280;68470;50.224;14.348;2023-03-16T03:24:52;100022.75;;;-4.85;94.99
79067;BME280;68470;50.224;14.348;2023-03-16T03:27:19;100033.69;;;-4.96;94.65
79067;BME280;68470;50.224;14.348;2023-03-16T03:29:47;100038.28;;;-5.06;94.89
79067;BME280;68470;50.224;14.348;2023-03-16T03:32:13;100050.41;;;-5.02;94.75
79067;BME280;68470;50.224;14.348;2023-03-16T03:34:38;100048.47;;;-5.10;94.55
79067;BME280;68470;50.224;14.348;2023-03-16T03:37:04;100054.28;;;-5.15;95.03
79067;BME280;68470;50.224;14.348;2023-03-16T03:39:30;100058.22;;;-5.09;95.21
79067;BME280;68470;50.224;14.348;2023-03-16T03:41:56;100054.34;;;-4.97;95.45
79067;BME280;68470;50.224;14.348;2023-03-16T03:44:23;100051.47;;;-4.86;96.05
79067;BME280;68470;50.224;14.348;2023-03-16T03:46:49;100051.06;;;-4.73;95.67
79067;BME280;68470;50.224;14.348;2023-03-16T03:49:16;100056.38;;;-4.81;95.30
79067;BME280;68470;50.224;14.348;2023-03-16T03:51:42;100053.88;;;-4.92;95.37
79067;BME280;68470;50.224;14.348;2023-03-16T03:54:09;100059.75;;;-5.06;95.52
79067;BME280;68470;50.224;14.348;2023-03-16T03:56:35;100052.78;;;-5.27;95.35
79067;BME280;68470;50.224;14.348;2023-03-16T03:59:01;100038.97;;;-5.32;95.76
79067;BME280;68470;50.224;14.348;2023-03-16T04:01:27;100053.22;;;-5.31;95.51
79067;BME280;68470;50.224;14.348;2023-03-16T04:03:53;100048.03;;;-5.33;95.82
79067;BME280;68470;50.224;14.348;2023-03-16T04:06:19;100057.47;;;-5.29;95.49
79067;BME280;68470;50.224;14.348;2023-03-16T04:08:45;100059.59;;;-5.32;95.69
79067;BME280;68470;50.224;14.348;2023-03-16T04:11:11;100063.69;;;-5.38;95.42
79067;BME280;68470;50.224;14.348;2023-03-16T04:13:36;100058.69;;;-5.51;95.60
79067;BME280;68470;50.224;14.348;2023-03-16T04:16:02;100069.13;;;-5.57;95.37
79067;BME280;68470;50.224;14.348;2023-03-16T04:18:30;100062.53;;;-5.72;95.42
79067;BME280;68470;50.224;14.348;2023-03-16T04:21:04;100070.88;;;-5.66;95.76
79067;BME280;68470;50.224;14.348;2023-03-16T04:23:31;100067.34;;;-5.76;95.83
79067;BME280;68470;50.224;14.348;2023-03-16T04:26:00;100078.91;;;-5.76;95.43
79067;BME280;68470;50.224;14.348;2023-03-16T04:28:26;100068.63;;;-5.70;96.14
79067;BME280;68470;50.224;14.348;2023-03-16T04:30:52;100079.31;;;-5.61;96.03
79067;BME280;68470;50.224;14.348;2023-03-16T04:33:20;100070.56;;;-5.72;95.82
79067;BME280;68470;50.224;14.348;2023-03-16T04:35:47;100079.22;;;-5.79;96.06
79067;BME280;68470;50.224;14.348;2023-03-16T04:38:12;100089.38;;;-5.82;95.24
79067;BME280;68470;50.224;14.348;2023-03-16T04:40:38;100082.19;;;-5.82;95.93
79067;BME280;68470;50.224;14.348;2023-03-16T04:43:04;100083.00;;;-5.71;95.78
79067;BME280;68470;50.224;14.348;2023-03-16T04:45:30;100078.50;;;-5.71;95.91
79067;BME280;68470;50.224;14.348;2023-03-16T04:47:56;100080.19;;;-5.80;95.77
79067;BME280;68470;50.224;14.348;2023-03-16T04:50:22;100092.09;;;-5.92;95.64
79067;BME280;68470;50.224;14.348;2023-03-16T04:52:48;100084.31;;;-5.85;96.16
79067;BME280;68470;50.224;14.348;2023-03-16T04:55:14;100099.09;;;-5.71;96.50
79067;BME280;68470;50.224;14.348;2023-03-16T04:57:40;100082.59;;;-5.77;96.39
79067;BME280;68470;50.224;14.348;2023-03-16T05:00:06;100093.31;;;-5.77;95.95
79067;BME280;68470;50.224;14.348;2023-03-16T05:02:37;100088.78;;;-5.66;96.04
79067;BME280;68470;50.224;14.348;2023-03-16T05:05:04;100096.94;;;-5.58;96.03
79067;BME280;68470;50.224;14.348;2023-03-16T05:07:30;100081.41;;;-5.55;95.88
79067;BME280;68470;50.224;14.348;2023-03-16T05:09:57;100085.66;;;-5.52;95.78
79067;BME280;68470;50.224;14.348;2023-03-16T05:12:22;100077.03;;;-5.56;95.84
79067;BME280;68470;50.224;14.348;2023-03-16T05:14:48;100091.41;;;-5.47;95.67
79067;BME280;68470;50.224;14.348;2023-03-16T05:17:14;100098.22;;;-5.53;95.61
79067;BME280;68470;50.224;14.348;2023-03-16T05:19:40;100084.41;;;-5.67;95.51
79067;BME280;68470;50.224;14.348;2023-03-16T05:22:07;100099.09;;;-5.25;95.60
79067;BME280;68470;50.224;14.348;2023-03-16T05:24:33;100089.56;;;-5.37;95.36
79067;BME280;68470;50.224;14.348;2023-03-16T05:26:59;100097.78;;;-5.58;94.82
79067;BME280;68470;50.224;14.348;2023-03-16T05:29:28;100098.38;;;-5.73;94.70
79067;BME280;68470;50.224;14.348;2023-03-16T05:31:56;100089.53;;;-5.84;95.31
79067;BME280;68470;50.224;14.348;2023-03-16T05:34:22;100088.97;;;-5.87;94.67
79067;BME280;68470;50.224;14.348;2023-03-16T05:36:48;100101.06;;;-5.64;94.90
79067;BME280;68470;50.224;14.348;2023-03-16T05:39:14;100107.91;;;-5.42;94.90
79067;BME280;68470;50.224;14.348;2023-03-16T05:41:40;100104.16;;;-4.21;93.99
79067;BME280;68470;50.224;14.348;2023-03-16T05:44:07;100101.50;;;-3.08;87.45
79067;BME280;68470;50.224;14.348;2023-03-16T05:46:33;100094.41;;;-2.17;85.33
79067;BME280;68470;50.224;14.348;2023-03-16T05:48:59;100080.25;;;-1.62;80.16
79067;BME280;68470;50.224;14.348;2023-03-16T05:51:25;100088.47;;;-0.75;81.35
79067;BME280;68470;50.224;14.348;2023-03-16T05:53:52;100085.59;;;-0.43;74.07
79067;BME280;68470;50.224;14.348;2023-03-16T05:56:25;100081.28;;;-0.29;75.85
79067;BME280;68470;50.224;14.348;2023-03-16T05:58:53;100094.81;;;0.40;73.68
79067;BME280;68470;50.224;14.348;2023-03-16T06:01:20;100088.75;;;1.19;70.82
79067;BME280;68470;50.224;14.348;2023-03-16T06:03:47;100090.03;;;1.53;67.32
79067;BME280;68470;50.224;14.348;2023-03-16T06:06:17;100084.41;;;1.91;65.63
79067;BME280;68470;50.224;14.348;2023-03-16T06:08:43;100088.22;;;2.39;66.68
79067;BME280;68470;50.224;14.348;2023-03-16T06:11:10;100079.41;;;2.86;64.55
79067;BME280;68470;50.224;14.348;2023-03-16T06:13:37;100088.84;;;3.73;60.90
79067;BME280;68470;50.224;14.348;2023-03-16T06:16:04;100087.13;;;3.65;59.49
79067;BME280;68470;50.224;14.348;2023-03-16T06:18:32;100093.56;;;4.12;59.17
79067;BME280;68470;50.224;14.348;2023-03-16T06:20:58;100086.47;;;4.24;59.33
79067;BME280;68470;50.224;14.348;2023-03-16T06:23:24;100096.78;;;4.75;57.71
79067;BME280;68470;50.224;14.348;2023-03-16T06:25:50;100089.41;;;4.95;60.25
79067;BME280;68470;50.224;14.348;2023-03-16T06:28:21;100096.84;;;5.46;55.98
79067;BME280;68470;50.224;14.348;2023-03-16T06:30:47;100101.59;;;5.70;53.98
79067;BME280;68470;50.224;14.348;2023-03-16T06:33:13;100100.56;;;5.71;55.57
79067;BME280;68470;50.224;14.348;2023-03-16T06:35:39;100100.41;;;6.04;55.65
79067;BME280;68470;50.224;14.348;2023-03-16T06:38:05;100100.19;;;6.38;52.80
79067;BME280;68470;50.224;14.348;2023-03-16T06:40:30;100098.34;;;6.63;50.55
79067;BME280;68470;50.224;14.348;2023-03-16T06:42:56;100107.97;;;7.59;48.05
79067;BME280;68470;50.224;14.348;2023-03-16T06:45:22;100093.25;;;7.90;46.47
79067;BME280;68470;50.224;14.348;2023-03-16T06:47:50;100115.03;;;8.14;46.13
79067;BME280;68470;50.224;14.348;2023-03-16T06:50:16;100114.78;;;7.68;46.69
79067;BME280;68470;50.224;14.348;2023-03-16T06:52:42;100121.34;;;8.75;43.26
79067;BME280;68470;50.224;14.348;2023-03-16T06:55:08;100111.25;;;7.97;46.03
79067;BME280;68470;50.224;14.348;2023-03-16T06:57:34;100110.13;;;8.77;43.62
79067;BME280;68470;50.224;14.348;2023-03-16T07:00:00;100104.56;;;8.95;42.39
79067;BME280;68470;50.224;14.348;2023-03-16T07:02:28;100118.69;;;9.85;41.09
79067;BME280;68470;50.224;14.348;2023-03-16T07:04:54;100116.19;;;9.72;41.16
79067;BME280;68470;50.224;14.348;2023-03-16T07:07:20;100122.31;;;9.74;42.03
79067;BME280;68470;50.224;14.348;2023-03-16T07:09:46;100125.09;;;9.16;43.47
79067;BME280;68470;50.224;14.348;2023-03-16T07:12:13;100119.66;;;9.91;42.58
79067;BME280;68470;50.224;14.348;2023-03-16T07:14:38;100122.59;;;10.41;39.25
79067;BME280;68470;50.224;14.348;2023-03-16T07:17:04;100122.81;;;10.85;38.74
79067;BME280;68470;50.224;14.348;2023-03-16T07:19:30;100120.63;;;10.70;39.74
79067;BME280;68470;50.224;14.348;2023-03-16T07:21:56;100108.84;;;11.25;36.82
79067;BME280;68470;50.224;14.348;2023-03-16T07:24:22;100127.81;;;11.38;37.78
79067;BME280;68470;50.224;14.348;2023-03-16T07:26:48;100115.78;;;11.44;37.87
79067;BME280;68470;50.224;14.348;2023-03-16T07:29:14;100134.94;;;11.18;39.42
79067;BME280;68470;50.224;14.348;2023-03-16T07:31:41;100128.41;;;11.24;39.71
79067;BME280;68470;50.224;14.348;2023-03-16T07:34:07;100129.75;;;11.77;38.23
79067;BME280;68470;50.224;14.348;2023-03-16T07:36:33;100120.03;;;12.13;36.36
79067;BME280;68470;50.224;14.348;2023-03-16T07:38:59;100119.00;;;11.58;37.39
79067;BME280;68470;50.224;14.348;2023-03-16T07:41:26;100122.19;;;11.89;36.97
79067;BME280;68470;50.224;14.348;2023-03-16T07:43:52;100116.44;;;12.12;36.95
79067;BME280;68470;50.224;14.348;2023-03-16T07:46:18;100113.28;;;12.79;36.48
79067;BME280;68470;50.224;14.348;2023-03-16T07:48:44;100129.09;;;11.69;39.88
79067;BME280;68470;50.224;14.348;2023-03-16T07:51:12;100125.50;;;12.88;37.76
79067;BME280;68470;50.224;14.348;2023-03-16T07:53:38;100126.31;;;13.58;35.38
79067;BME280;68470;50.224;14.348;2023-03-16T07:56:05;100117.38;;;13.93;34.02
79067;BME280;68470;50.224;14.348;2023-03-16T07:58:31;100118.38;;;13.72;34.57
79067;BME280;68470;50.224;14.348;2023-03-16T08:00:58;100126.78;;;13.87;34.59
79067;BME280;68470;50.224;14.348;2023-03-16T08:03:28;100129.59;;;13.97;34.01
79067;BME280;68470;50.224;14.348;2023-03-16T08:05:54;100137.09;;;14.85;32.70
79067;BME280;68470;50.224;14.348;2023-03-16T08:08:20;100143.84;;;14.31;34.18
79067;BME280;68470;50.224;14.348;2023-03-16T08:10:48;100142.06;;;15.23;31.81
79067;BME280;68470;50.224;14.348;2023-03-16T08:13:17;100142.31;;;14.76;33.47
79067;BME280;68470;50.224;14.348;2023-03-16T08:15:47;100127.69;;;14.96;33.11
79067;BME280;68470;50.224;14.348;2023-03-16T08:18:13;100122.94;;;15.47;30.57
79067;BME280;68470;50.224;14.348;2023-03-16T08:20:39;100134.25;;;14.54;33.08
79067;BME280;68470;50.224;14.348;2023-03-16T08:23:06;100127.13;;;12.84;36.56
79067;BME280;68470;50.224;14.348;2023-03-16T08:25:32;100129.06;;;13.16;37.31
79067;BME280;68470;50.224;14.348;2023-03-16T08:27:58;100125.63;;;12.45;36.83
79067;BME280;68470;50.224;14.348;2023-03-16T08:30:24;100138.84;;;12.97;38.07
79067;BME280;68470;50.224;14.348;2023-03-16T08:32:51;100135.69;;;10.96;40.63
79067;BME280;68470;50.224;14.348;2023-03-16T08:35:17;100133.31;;;11.38;39.51
79067;BME280;68470;50.224;14.348;2023-03-16T08:37:43;100144.88;;;11.19;40.44
79067;BME280;68470;50.224;14.348;2023-03-16T08:40:11;100152.00;;;13.48;35.12
79067;BME280;68470;50.224;14.348;2023-03-16T08:42:40;100141.41;;;13.35;34.92
79067;BME280;68470;50.224;14.348;2023-03-16T08:45:07;100127.91;;;14.64;32.58
79067;BME280;68470;50.224;14.348;2023-03-16T08:47:35;100133.00;;;14.25;34.14
79067;BME280;68470;50.224;14.348;2023-03-16T08:50:03;100135.69;;;13.47;35.11
79067;BME280;68470;50.224;14.348;2023-03-16T08:52:31;100127.09;;;14.79;32.94
79067;BME280;68470;50.224;14.348;2023-03-16T08:54:59;100139.31;;;15.03;32.08
79067;BME280;68470;50.224;14.348;2023-03-16T08:57:25;100122.44;;;16.20;30.17
79067;BME280;68470;50.224;14.348;2023-03-16T08:59:51;100134.16;;;16.07;30.14
79067;BME280;68470;50.224;14.348;2023-03-16T09:02:17;100131.38;;;16.61;29.18
79067;BME280;68470;50.224;14.348;2023-03-16T09:04:43;100140.50;;;16.77;28.24
79067;BME280;68470;50.224;14.348;2023-03-16T09:07:10;100124.28;;;15.75;30.13
79067;BME280;68470;50.224;14.348;2023-03-16T09:09:37;100132.16;;;16.22;29.39
79067;BME280;68470;50.224;14.348;2023-03-16T09:12:04;100138.97;;;17.00;27.36
79067;BME280;68470;50.224;14.348;2023-03-16T09:14:31;100137.34;;;14.93;31.15
79067;BME280;68470;50.224;14.348;2023-03-16T09:16:56;100139.78;;;17.00;28.77
79067;BME280;68470;50.224;14.348;2023-03-16T09:19:23;100142.88;;;16.44;30.14
79067;BME280;68470;50.224;14.348;2023-03-16T09:21:49;100147.31;;;16.50;29.75
79067;BME280;68470;50.224;14.348;2023-03-16T09:24:16;100146.50;;;15.55;30.64
79067;BME280;68470;50.224;14.348;2023-03-16T09:26:42;100154.53;;;16.51;28.81
79067;BME280;68470;50.224;14.348;2023-03-16T09:29:08;100150.63;;;13.98;34.12
79067;BME280;68470;50.224;14.348;2023-03-16T09:31:34;100153.75;;;15.15;32.09
79067;BME280;68470;50.224;14.348;2023-03-16T09:34:01;100158.59;;;16.10;29.33
79067;BME280;68470;50.224;14.348;2023-03-16T09:36:27;100157.59;;;15.24;31.98
79067;BME280;68470;50.224;14.348;2023-03-16T09:38:53;100154.81;;;15.40;30.64
79067;BME280;68470;50.224;14.348;2023-03-16T09:41:43;100167.84;;;16.54;27.59
79067;BME280;68470;50.224;14.348;2023-03-16T09:44:36;100169.84;;;16.98;27.43
79067;BME280;68470;50.224;14.348;2023-03-16T09:47:08;100161.50;;;16.93;26.89
79067;BME280;68470;50.224;14.348;2023-03-16T09:49:48;100160.25;;;17.78;25.75
79067;BME280;68470;50.224;14.348;2023-03-16T09:52:34;100158.16;;;16.47;27.42
79067;BME280;68470;50.224;14.348;2023-03-16T09:55:11;100154.06;;;17.23;25.74
79067;BME280;68470;50.224;14.348;2023-03-16T09:57:45;100156.47;;;16.51;28.74
79067;BME280;68470;50.224;14.348;2023-03-16T10:00:26;100154.59;;;17.25;24.53
79067;BME280;68470;50.224;14.348;2023-03-16T10:05:51;100162.56;;;15.78;28.85
79067;BME280;68470;50.224;14.348;2023-03-16T10:08:22;100151.28;;;16.34;27.00
79067;BME280;68470;50.224;14.348;2023-03-16T10:18:46;100159.59;;;12.99;33.17
79067;BME280;68470;50.224;14.348;2023-03-16T10:21:15;100156.66;;;13.11;31.04
79067;BME280;68470;50.224;14.348;2023-03-16T10:23:44;100148.53;;;12.72;33.03
79067;BME280;68470;50.224;14.348;2023-03-16T10:26:23;100149.84;;;15.06;29.57
79067;BME280;68470;50.224;14.348;2023-03-16T10:28:50;100146.19;;;15.82;28.48
79067;BME280;68470;50.224;14.348;2023-03-16T10:31:20;100144.16;;;16.08;28.06
79067;BME280;68470;50.224;14.348;2023-03-16T10:33:49;100142.34;;;13.56;30.74
79067;BME280;68470;50.224;14.348;2023-03-16T10:36:31;100141.59;;;11.94;34.44
79067;BME280;68470;50.224;14.348;2023-03-16T10:39:02;100136.19;;;13.86;30.66
79067;BME280;68470;50.224;14.348;2023-03-16T10:41:31;100135.41;;;14.84;30.15
79067;BME280;68470;50.224;14.348;2023-03-16T10:44:01;100125.19;;;14.06;30.33
79067;BME280;68470;50.224;14.348;2023-03-16T10:46:40;100129.81;;;15.85;28.55
79067;BME280;68470;50.224;14.348;2023-03-16T10:49:28;100120.50;;;16.75;27.66
79067;BME280;68470;50.224;14.348;2023-03-16T10:51:59;100125.06;;;17.00;25.77
79067;BME280;68470;50.224;14.348;2023-03-16T10:54:36;100125.41;;;15.54;27.10
79067;BME280;68470;50.224;14.348;2023-03-16T10:57:24;100121.50;;;14.48;28.61
79067;BME280;68470;50.224;14.348;2023-03-16T10:59:52;100133.19;;;14.86;27.92
79067;BME280;68470;50.224;14.348;2023-03-16T11:02:23;100114.97;;;11.27;36.59
79067;BME280;68470;50.224;14.348;2023-03-16T11:04:51;100119.19;;;10.22;37.19
79067;BME280;68470;50.224;14.348;2023-03-16T11:07:22;100123.50;;;9.78;39.03
79067;BME280;68470;50.224;14.348;2023-03-16T11:09:54;100120.59;;;12.95;33.18
79067;BME280;68470;50.224;14.348;2023-03-16T11:12:24;100103.25;;;14.67;29.76
79067;BME280;68470;50.224;14.348;2023-03-16T11:14:51;100093.59;;;14.95;29.89
79067;BME280;68470;50.224;14.348;2023-03-16T11:17:43;100099.97;;;16.16;25.78
79067;BME280;68470;50.224;14.348;2023-03-16T11:20:21;100102.22;;;16.09;26.85
79067;BME280;68470;50.224;14.348;2023-03-16T11:22:48;100094.34;;;16.76;24.42
79067;BME280;68470;50.224;14.348;2023-03-16T11:25:26;100095.28;;;17.00;24.45
79067;BME280;68470;50.224;14.348;2023-03-16T11:28:05;100099.19;;;16.99;24.83
79067;BME280;68470;50.224;14.348;2023-03-16T11:30:39;100095.25;;;16.12;26.97
79067;BME280;68470;50.224;14.348;2023-03-16T11:33:10;100094.94;;;15.23;27.35
79067;BME280;68470;50.224;14.348;2023-03-16T11:35:56;100098.81;;;15.38;28.99
79067;BME280;68470;50.224;14.348;2023-03-16T11:38:34;100092.19;;;16.18;25.11
79067;BME280;68470;50.224;14.348;2023-03-16T11:41:04;100087.63;;;15.83;26.68
79067;BME280;68470;50.224;14.348;2023-03-16T11:43:42;100086.38;;;16.10;25.91
79067;BME280;68470;50.224;14.348;2023-03-16T11:46:16;100085.78;;;16.23;25.03
79067;BME280;68470;50.224;14.348;2023-03-16T11:48:56;100077.16;;;16.24;26.40
79067;BME280;68470;50.224;14.348;2023-03-16T12:06:18;100066.41;;;15.13;28.27
79067;BME280;68470;50.224;14.348;2023-03-16T12:08:52;100052.75;;;15.42;26.42
79067;BME280;68470;50.224;14.348;2023-03-16T12:11:27;100054.72;;;16.11;25.87
79067;BME280;68470;50.224;14.348;2023-03-16T12:16:35;100049.84;;;15.87;25.51
79067;BME280;68470;50.224;14.348;2023-03-16T12:19:06;100054.78;;;15.95;24.79
79067;BME280;68470;50.224;14.348;2023-03-16T12:21:39;100048.31;;;14.39;26.28
79067;BME280;68470;50.224;14.348;2023-03-16T12:24:14;100051.16;;;14.74;26.33
79067;BME280;68470;50.224;14.348;2023-03-16T12:26:42;100032.31;;;14.92;26.21
79067;BME280;68470;50.224;14.348;2023-03-16T12:29:33;100035.47;;;15.80;24.79
79067;BME280;68470;50.224;14.348;2023-03-16T12:32:42;100040.34;;;16.04;25.20
79067;BME280;68470;50.224;14.348;2023-03-16T12:35:12;100037.88;;;15.92;24.51
79067;BME280;68470;50.224;14.348;2023-03-16T12:38:38;100048.66;;;15.03;25.61
79067;BME280;68470;50.224;14.348;2023-03-16T12:40:47;100036.88;;;15.57;23.94
79067;BME280;68470;50.224;14.348;2023-03-16T12:46:12;100035.63;;;12.44;28.71
79067;BME280;68470;50.224;14.348;2023-03-16T12:48:46;100033.50;;;13.25;27.99
79067;BME280;68470;50.224;14.348;2023-03-16T12:51:14;100025.50;;;13.86;26.95
79067;BME280;68470;50.224;14.348;2023-03-16T12:56:34;100014.38;;;13.76;27.32
79067;BME280;68470;50.224;14.348;2023-03-16T12:59:05;100018.84;;;13.87;26.40
79067;BME280;68470;50.224;14.348;2023-03-16T13:01:41;100016.09;;;13.87;25.99
79067;BME280;68470;50.224;14.348;2023-03-16T13:04:17;100013.91;;;13.94;25.73
79067;BME280;68470;50.224;14.348;2023-03-16T13:06:50;100011.06;;;13.74;27.29
79067;BME280;68470;50.224;14.348;2023-03-16T13:09:27;100005.13;;;14.28;25.98
79067;BME280;68470;50.224;14.348;2023-03-16T13:11:56;100021.00;;;13.75;26.40
79067;BME280;68470;50.224;14.348;2023-03-16T13:14:39;100020.13;;;13.59;25.89
79067;BME280;68470;50.224;14.348;2023-03-16T13:17:29;100012.53;;;13.34;26.57
79067;BME280;68470;50.224;14.348;2023-03-16T13:22:43;100010.00;;;12.85;27.73
79067;BME280;68470;50.224;14.348;2023-03-16T13:27:39;100007.81;;;12.55;28.33
79067;BME280;68470;50.224;14.348;2023-03-16T13:32:46;100005.97;;;12.34;26.48
79067;BME280;68470;50.224;14.348;2023-03-16T13:35:14;100004.41;;;11.67;27.93
79067;BME280;68470;50.224;14.348;2023-03-16T13:37:42;100013.38;;;11.36;30.05
79067;BME280;68470;50.224;14.348;2023-03-16T13:40:25;100010.00;;;10.57;30.49
79067;BME280;68470;50.224;14.348;2023-03-16T13:42:52;100004.00;;;10.93;31.78
79067;BME280;68470;50.224;14.348;2023-03-16T13:45:23;99996.09;;;10.46;30.39
79067;BME280;68470;50.224;14.348;2023-03-16T13:47:53;99996.69;;;9.34;32.03
79067;BME280;68470;50.224;14.348;2023-03-16T13:50:19;100002.69;;;9.20;33.12
79067;BME280;68470;50.224;14.348;2023-03-16T13:53:27;99992.94;;;8.89;35.55